Time;durP1;ratioP1;P1;durP2;ratioP2;P2;SDS_P1;SDS_P2;PMS_P1;PMS_P2;Temp;Humidity;BMP_temperature;BMP_pressure;BME280_temperature;BME280_humidity;BME280_pressure;Samples;Min_cycle;Max_cycle;Signal;HPM_P1;HPM_P2
2023/02/22 00:00:41;;;;;;;;;11.00;9.50;28.70;34.30;;;;;;110153;1253;46062;-63
2023/02/22 00:03:26;;;;;;;;;10.00;9.00;28.70;34.30;;;;;;110213;1254;55398;-64
2023/02/22 00:06:03;;;;;;;;;9.67;9.00;28.60;34.30;;;;;;110241;1250;53932;-63
2023/02/22 00:08:36;;;;;;;;;9.00;8.00;28.50;34.30;;;;;;110202;1250;49894;-64
2023/02/22 00:11:07;;;;;;;;;11.00;10.00;28.50;34.30;;;;;;110159;1251;49347;-63
2023/02/22 00:13:35;;;;;;;;;10.00;9.00;28.40;34.20;;;;;;110215;1250;46430;-63
2023/02/22 00:16:02;;;;;;;;;12.00;11.00;28.40;34.40;;;;;;110248;1254;55152;-63
2023/02/22 00:18:29;;;;;;;;;11.00;9.00;28.30;34.40;;;;;;110184;1250;54034;-64
2023/02/22 00:20:58;;;;;;;;;12.00;9.33;28.30;34.40;;;;;;110190;1250;49008;-63
2023/02/22 00:23:28;;;;;;;;;10.00;9.00;28.30;34.40;;;;;;110186;1249;50559;-63
2023/02/22 00:25:56;;;;;;;;;10.50;9.50;28.30;34.40;;;;;;110302;1250;46413;-63
2023/02/22 00:28:23;;;;;;;;;12.00;10.00;28.40;34.40;;;;;;110266;1250;56987;-64
2023/02/22 00:30:50;;;;;;;;;10.00;9.00;28.40;34.40;;;;;;110212;1254;53446;-65
2023/02/22 00:33:17;;;;;;;;;11.00;10.00;28.40;34.30;;;;;;110192;1250;50086;-65
2023/02/22 00:35:45;;;;;;;;;9.00;8.00;28.40;34.30;;;;;;110197;1250;49859;-65
2023/02/22 00:38:15;;;;;;;;;11.00;10.00;28.50;34.40;;;;;;110331;1254;45360;-66
2023/02/22 00:40:42;;;;;;;;;11.50;10.00;28.50;34.30;;;;;;110387;1250;55471;-64
2023/02/22 00:43:09;;;;;;;;;12.50;11.50;28.60;34.40;;;;;;110198;1251;54092;-63
2023/02/22 00:45:36;;;;;;;;;10.00;9.00;28.60;34.30;;;;;;110199;1252;49344;-64
2023/02/22 00:48:05;;;;;;;;;10.33;9.33;28.70;34.50;;;;;;110197;1254;50136;-64
2023/02/22 00:50:32;;;;;;;;;10.00;9.00;28.70;34.30;;;;;;110196;1251;46269;-64
2023/02/22 00:53:01;;;;;;;;;10.50;9.50;28.80;34.30;;;;;;110176;1250;55510;-64
2023/02/22 00:55:30;;;;;;;;;11.00;9.50;28.90;34.50;;;;;;110217;1254;53589;-63
2023/02/22 00:57:58;;;;;;;;;12.50;9.75;28.90;34.40;;;;;;110286;1250;49677;-64
2023/02/22 01:00:29;;;;;;;;;12.00;9.00;29.00;34.60;;;;;;110245;1251;49609;-65
2023/02/22 01:02:57;;;;;;;;;10.00;9.00;29.10;34.60;;;;;;110138;1253;45251;-64
2023/02/22 01:05:26;;;;;;;;;9.00;8.00;29.10;34.30;;;;;;110192;1250;55979;-64
2023/02/22 01:07:55;;;;;;;;;10.00;9.00;29.20;34.30;;;;;;110273;1254;54624;-64
2023/02/22 01:10:24;;;;;;;;;10.75;9.50;29.30;34.30;;;;;;110031;1251;49653;-66
2023/02/22 01:12:51;;;;;;;;;12.00;11.00;29.40;34.30;;;;;;110125;1254;48955;-64
2023/02/22 01:15:21;;;;;;;;;10.25;9.00;29.40;34.30;;;;;;110126;1251;45216;-64
2023/02/22 01:17:50;;;;;;;;;9.00;8.00;29.40;34.40;;;;;;110230;1254;56555;-64
2023/02/22 01:20:17;;;;;;;;;10.33;9.33;29.50;34.20;;;;;;110189;1254;54490;-64
2023/02/22 01:22:47;;;;;;;;;12.00;10.00;29.60;34.20;;;;;;110165;1254;48683;-64
2023/02/22 01:25:17;;;;;;;;;11.00;10.00;29.60;34.20;;;;;;110155;1254;49606;-63
2023/02/22 01:27:44;;;;;;;;;10.00;9.00;29.60;34.20;;;;;;110220;1250;46240;-65
2023/02/22 01:30:13;;;;;;;;;12.00;11.00;29.70;34.20;;;;;;110150;1251;55430;-63
2023/02/22 01:32:41;;;;;;;;;9.50;8.50;29.80;34.20;;;;;;110031;1254;55204;-64
2023/02/22 01:35:12;;;;;;;;;10.00;9.00;29.80;34.20;;;;;;110147;1250;50178;-64
2023/02/22 01:37:40;;;;;;;;;10.00;9.00;29.80;34.20;;;;;;110097;1254;49088;-64
2023/02/22 01:40:15;;;;;;;;;11.00;10.00;29.80;34.20;;;;;;110139;1251;46182;-65
2023/02/22 01:42:43;;;;;;;;;10.00;9.00;29.70;34.30;;;;;;110082;1250;55788;-65
2023/02/22 01:45:28;;;;;;;;;10.67;9.67;29.80;34.10;;;;;;110089;1254;53959;-64
2023/02/22 01:48:04;;;;;;;;;10.67;9.67;29.80;34.00;;;;;;110073;1250;49799;-65
2023/02/22 01:50:36;;;;;;;;;12.00;9.00;29.80;34.00;;;;;;110018;1256;49500;-65
2023/02/22 01:53:03;;;;;;;;;11.00;10.00;29.70;33.90;;;;;;110117;1251;46818;-64
2023/02/22 01:55:31;;;;;;;;;10.50;9.50;29.70;33.90;;;;;;110251;1252;55562;-65
2023/02/22 01:57:58;;;;;;;;;9.00;8.00;29.70;33.90;;;;;;110210;1255;53998;-64
2023/02/22 02:00:26;;;;;;;;;12.00;11.00;29.70;34.00;;;;;;110057;1254;49879;-64
2023/02/22 02:02:58;;;;;;;;;11.00;9.00;29.60;33.40;;;;;;110307;1254;50485;-64
2023/02/22 02:05:26;;;;;;;;;11.00;10.00;29.60;33.80;;;;;;110313;1250;45191;-65
2023/02/22 02:07:53;;;;;;;;;11.00;9.00;29.50;34.00;;;;;;110186;1251;55974;-65
2023/02/22 02:10:20;;;;;;;;;10.50;9.00;29.50;33.80;;;;;;109964;1254;55167;-65
2023/02/22 02:12:49;;;;;;;;;12.00;11.00;29.50;33.80;;;;;;109996;1256;49680;-64
2023/02/22 02:15:25;;;;;;;;;9.00;8.00;29.40;33.70;;;;;;110077;1254;49772;-65
2023/02/22 02:17:53;;;;;;;;;12.00;9.00;29.40;33.80;;;;;;110042;1250;45619;-65
2023/02/22 02:20:30;;;;;;;;;10.00;9.00;29.30;33.70;;;;;;110079;1250;55678;-65
2023/02/22 02:23:05;;;;;;;;;10.00;9.00;29.30;33.90;;;;;;110065;1254;54500;-64
2023/02/22 02:25:54;;;;;;;;;10.00;8.50;29.20;33.70;;;;;;110085;1250;49721;-64
2023/02/22 02:28:43;;;;;;;;;11.00;10.00;29.10;33.90;;;;;;109992;1254;49384;-63
2023/02/22 02:31:48;;;;;;;;;12.50;9.50;29.10;33.90;;;;;;110210;1254;45694;-64
2023/02/22 02:34:27;;;;;;;;;11.00;10.00;29.00;33.70;;;;;;109446;1263;56408;-65
2023/02/22 02:37:15;;;;;;;;;12.00;11.00;29.00;33.70;;;;;;109402;1258;54385;-65
2023/02/22 02:40:10;;;;;;;;;10.00;9.00;28.90;33.60;;;;;;109863;1252;50295;-64
2023/02/22 02:42:43;;;;;;;;;10.00;9.00;28.90;33.60;;;;;;110205;1254;49462;-64
2023/02/22 02:45:17;;;;;;;;;10.50;9.00;28.80;33.70;;;;;;110244;1250;45978;-64
2023/02/22 02:47:48;;;;;;;;;10.33;9.33;28.70;33.60;;;;;;110094;1254;55454;-64
2023/02/22 02:50:20;;;;;;;;;10.00;9.00;28.60;33.50;;;;;;110173;1250;53894;-64
2023/02/22 02:52:48;;;;;;;;;10.00;8.50;28.60;33.80;;;;;;110245;1250;49789;-64
2023/02/22 02:55:15;;;;;;;;;13.00;10.00;28.50;33.50;;;;;;110112;1253;50241;-64
2023/02/22 02:57:43;;;;;;;;;12.00;11.00;28.50;33.60;;;;;;109994;1253;45405;-64
2023/02/22 03:00:23;;;;;;;;;10.00;9.00;28.50;33.80;;;;;;110126;1254;55313;-64
2023/02/22 03:03:02;;;;;;;;;9.00;8.00;28.40;33.70;;;;;;110080;1250;54233;-63
2023/02/22 03:06:06;;;;;;;;;12.00;11.00;28.30;33.20;;;;;;110184;1250;49834;-64
2023/02/22 03:08:45;;;;;;;;;10.00;9.00;28.30;33.70;;;;;;110109;1254;49900;-64
2023/02/22 03:11:21;;;;;;;;;12.00;11.00;28.20;33.60;;;;;;110127;1250;45546;-64
2023/02/22 03:14:11;;;;;;;;;10.00;9.00;28.20;33.70;;;;;;110156;1254;55887;-64
2023/02/22 03:16:54;;;;;;;;;10.00;8.00;28.10;33.70;;;;;;110226;1250;54178;-64
2023/02/22 03:19:28;;;;;;;;;12.00;11.00;28.00;33.70;;;;;;110010;1251;50169;-65
2023/02/22 03:22:26;;;;;;;;;10.00;9.00;28.00;33.70;;;;;;110089;1254;50091;-62
2023/02/22 03:25:06;;;;;;;;;11.33;10.33;27.90;33.70;;;;;;110068;1254;45304;-64
2023/02/22 03:27:42;;;;;;;;;10.50;9.00;27.90;33.80;;;;;;110136;1254;55869;-63
2023/02/22 03:30:22;;;;;;;;;12.00;10.00;27.80;33.70;;;;;;110055;1250;53804;-63
2023/02/22 03:32:55;;;;;;;;;10.00;8.00;27.80;33.70;;;;;;109973;1254;50216;-63
2023/02/22 03:35:29;;;;;;;;;12.00;10.00;27.80;33.80;;;;;;110042;1256;49565;-64
2023/02/22 03:37:59;;;;;;;;;9.00;8.00;27.80;33.80;;;;;;109961;1254;45635;-63
2023/02/22 03:40:47;;;;;;;;;11.33;9.33;27.80;33.10;;;;;;112255;1250;55399;-64
2023/02/22 03:43:18;;;;;;;;;14.00;10.00;27.90;33.80;;;;;;112239;1254;54519;-64
2023/02/22 03:45:47;;;;;;;;;10.00;9.00;28.10;33.60;;;;;;112110;1254;49798;-64
2023/02/22 03:48:24;;;;;;;;;10.00;8.00;28.30;33.40;;;;;;112122;1251;49260;-64
2023/02/22 03:50:52;;;;;;;;;11.25;10.00;28.50;33.10;;;;;;112122;1254;45532;-64
2023/02/22 03:53:21;;;;;;;;;9.00;8.00;28.70;32.90;;;;;;112113;1254;55462;-63
2023/02/22 03:55:52;;;;;;;;;10.00;9.00;28.90;33.10;;;;;;110009;1252;54719;-64
2023/02/22 03:58:21;;;;;;;;;10.67;9.67;29.00;33.40;;;;;;110057;1250;49016;-63
2023/02/22 04:00:51;;;;;;;;;11.50;9.25;28.90;32.80;;;;;;109975;1253;50309;-63
2023/02/22 04:03:20;;;;;;;;;11.00;10.00;28.70;32.90;;;;;;109994;1252;45799;-64
2023/02/22 04:05:47;;;;;;;;;10.50;9.50;28.60;33.00;;;;;;110141;1250;55538;-63
2023/02/22 04:08:15;;;;;;;;;12.33;11.33;28.50;33.40;;;;;;110118;1250;54162;-64
2023/02/22 04:10:42;;;;;;;;;11.00;10.00;28.40;33.30;;;;;;110098;1254;49948;-63
2023/02/22 04:13:09;;;;;;;;;11.00;10.00;28.40;33.60;;;;;;110081;1254;50476;-63
2023/02/22 04:15:36;;;;;;;;;12.00;9.00;28.30;33.40;;;;;;110125;1254;45647;-64
2023/02/22 04:18:04;;;;;;;;;10.00;9.00;28.20;33.50;;;;;;110086;1250;55450;-64
2023/02/22 04:20:33;;;;;;;;;11.00;10.00;28.20;33.50;;;;;;110137;1250;53655;-65
2023/02/22 04:23:00;;;;;;;;;12.00;9.50;28.10;33.60;;;;;;110093;1250;50254;-64
2023/02/22 04:25:28;;;;;;;;;10.00;9.00;28.00;33.50;;;;;;110147;1250;49712;-64
2023/02/22 04:27:54;;;;;;;;;9.67;8.67;28.00;33.60;;;;;;110163;1254;46688;-64
2023/02/22 04:30:22;;;;;;;;;13.50;11.00;27.90;33.60;;;;;;110206;1250;55421;-63
2023/02/22 04:32:49;;;;;;;;;9.00;8.00;27.90;33.90;;;;;;110063;1250;53351;-63
2023/02/22 04:35:16;;;;;;;;;10.00;9.00;27.80;33.70;;;;;;110102;1250;49934;-63
2023/02/22 04:37:43;;;;;;;;;11.00;10.00;27.80;33.80;;;;;;110105;1250;49641;-64
2023/02/22 04:40:10;;;;;;;;;12.67;10.00;27.70;33.80;;;;;;110078;1254;46137;-65
2023/02/22 04:42:38;;;;;;;;;10.00;9.00;27.70;33.80;;;;;;110142;1254;56484;-65
2023/02/22 04:45:06;;;;;;;;;10.00;9.00;27.60;33.80;;;;;;110191;1254;53827;-63
2023/02/22 04:47:34;;;;;;;;;10.67;10.00;27.60;33.80;;;;;;110237;1250;49226;-64
2023/02/22 04:50:04;;;;;;;;;11.50;9.50;27.60;33.80;;;;;;110191;1251;49103;-64
2023/02/22 04:52:31;;;;;;;;;12.00;10.00;27.50;33.70;;;;;;110140;1256;46289;-64
2023/02/22 04:54:57;;;;;;;;;11.00;10.00;27.50;33.80;;;;;;110212;1254;56161;-65
2023/02/22 04:57:25;;;;;;;;;10.00;8.50;27.50;33.80;;;;;;110297;1250;54069;-65
2023/02/22 04:59:53;;;;;;;;;14.00;11.00;27.40;34.00;;;;;;110160;1250;49893;-64
2023/02/22 05:02:20;;;;;;;;;10.50;9.50;27.40;33.80;;;;;;110356;1254;50088;-65
2023/02/22 05:04:47;;;;;;;;;11.00;10.00;27.30;33.80;;;;;;110059;1254;45355;-63
2023/02/22 05:07:14;;;;;;;;;11.00;10.00;27.30;33.90;;;;;;110081;1250;55225;-64
2023/02/22 05:09:41;;;;;;;;;11.00;9.00;27.20;33.80;;;;;;110195;1252;53769;-64
2023/02/22 05:12:08;;;;;;;;;10.00;9.00;27.20;33.90;;;;;;110122;1254;50775;-64
2023/02/22 05:14:35;;;;;;;;;11.00;10.00;27.20;33.90;;;;;;110137;1254;50543;-64
2023/02/22 05:17:03;;;;;;;;;12.00;10.50;27.10;33.90;;;;;;110246;1250;46055;-63
2023/02/22 05:19:30;;;;;;;;;12.00;10.00;27.00;33.80;;;;;;110146;1254;55365;-64
2023/02/22 05:21:57;;;;;;;;;11.00;9.00;27.00;33.70;;;;;;110115;1254;54651;-63
2023/02/22 05:24:24;;;;;;;;;10.00;9.00;27.00;33.90;;;;;;110073;1252;49423;-63
2023/02/22 05:26:52;;;;;;;;;11.00;10.00;26.90;33.90;;;;;;110194;1254;49815;-64
2023/02/22 05:29:19;;;;;;;;;10.00;9.00;26.90;33.90;;;;;;110091;1250;45171;-63
2023/02/22 05:31:47;;;;;;;;;11.00;10.00;26.80;33.50;;;;;;110290;1250;55909;-64
2023/02/22 05:34:15;;;;;;;;;12.00;10.00;26.80;33.90;;;;;;110094;1254;54277;-65
2023/02/22 05:36:42;;;;;;;;;13.00;12.00;26.70;33.90;;;;;;110109;1250;49097;-67
2023/02/22 05:39:09;;;;;;;;;11.00;10.00;26.70;34.10;;;;;;110091;1254;49028;-61
2023/02/22 05:41:36;;;;;;;;;13.00;11.50;26.70;33.90;;;;;;110108;1254;46005;-63
2023/02/22 05:44:03;;;;;;;;;11.33;10.67;26.60;34.10;;;;;;110192;1254;55999;-64
2023/02/22 05:46:30;;;;;;;;;14.00;12.00;26.60;34.30;;;;;;110137;1254;53970;-62
2023/02/22 05:48:57;;;;;;;;;17.00;16.00;26.50;34.70;;;;;;110263;1254;50002;-62
2023/02/22 05:51:24;;;;;;;;;38.50;27.00;26.50;34.90;;;;;;110257;1250;50438;-62
2023/02/22 05:53:52;;;;;;;;;31.50;25.00;26.50;35.60;;;;;;110343;1250;45586;-61
2023/02/22 05:56:24;;;;;;;;;28.00;22.00;26.40;35.40;;;;;;110212;1254;55250;-61
2023/02/22 05:58:51;;;;;;;;;22.00;20.50;26.40;35.40;;;;;;110214;1254;54101;-60
2023/02/22 06:01:18;;;;;;;;;27.00;22.00;26.40;35.40;;;;;;110241;1251;50084;-60
2023/02/22 06:03:47;;;;;;;;;31.00;26.00;26.30;35.40;;;;;;110186;1250;50196;-63
2023/02/22 06:06:15;;;;;;;;;29.00;23.00;26.30;35.40;;;;;;110307;1254;45949;-62
2023/02/22 06:08:42;;;;;;;;;32.50;25.50;26.30;36.00;;;;;;110280;1254;55950;-63
2023/02/22 06:11:10;;;;;;;;;42.00;32.00;26.30;37.70;;;;;;110255;1254;53416;-62
2023/02/22 06:13:37;;;;;;;;;52.00;38.00;26.30;39.40;;;;;;110013;1254;49623;-61
2023/02/22 06:16:05;;;;;;;;;43.00;34.00;26.30;38.90;;;;;;110241;1250;49625;-59
2023/02/22 06:18:33;;;;;;;;;42.50;31.00;26.20;39.20;;;;;;110301;1250;45985;-61
2023/02/22 06:21:00;;;;;;;;;45.50;30.00;26.20;38.70;;;;;;110300;1254;55782;-61
2023/02/22 06:23:27;;;;;;;;;48.00;32.00;26.10;38.60;;;;;;110219;1250;53861;-60
2023/02/22 06:25:54;;;;;;;;;41.00;32.00;26.10;39.40;;;;;;110139;1254;49751;-61
2023/02/22 06:28:22;;;;;;;;;41.00;31.33;26.00;39.10;;;;;;110107;1254;49120;-61
2023/02/22 06:30:49;;;;;;;;;37.33;28.67;26.00;39.10;;;;;;110047;1254;45306;-63
2023/02/22 06:33:16;;;;;;;;;30.50;28.00;26.00;38.90;;;;;;109598;1250;641051;-61
2023/02/22 06:35:44;;;;;;;;;29.00;24.00;26.00;38.80;;;;;;110033;1250;53820;-61
2023/02/22 06:38:11;;;;;;;;;48.00;32.00;25.90;38.80;;;;;;110137;1250;49827;-67
2023/02/22 06:40:38;;;;;;;;;32.00;26.50;25.90;38.30;;;;;;110157;1254;50423;-62
2023/02/22 06:43:05;;;;;;;;;35.33;24.33;25.90;38.60;;;;;;110135;1254;45701;-61
2023/02/22 06:45:32;;;;;;;;;29.00;26.50;25.90;38.50;;;;;;110156;1254;56320;-62
2023/02/22 06:47:59;;;;;;;;;36.00;25.67;25.90;38.40;;;;;;110035;1255;54403;-62
2023/02/22 06:50:28;;;;;;;;;34.50;29.00;25.90;38.30;;;;;;110117;1250;49139;-62
2023/02/22 06:52:56;;;;;;;;;30.00;25.00;25.90;38.10;;;;;;110059;1250;49004;-62
2023/02/22 06:55:26;;;;;;;;;32.00;26.50;25.80;37.90;;;;;;110078;1254;45424;-60
2023/02/22 06:57:53;;;;;;;;;33.67;27.67;25.80;37.80;;;;;;110140;1250;55185;-61
2023/02/22 07:00:23;;;;;;;;;34.50;26.50;25.70;37.60;;;;;;110048;1254;54166;-61
2023/02/22 07:02:50;;;;;;;;;28.00;25.00;25.70;37.60;;;;;;110240;1254;49077;-62
2023/02/22 07:05:20;;;;;;;;;26.50;24.50;25.60;37.40;;;;;;110140;1250;50583;-62
2023/02/22 07:07:48;;;;;;;;;33.00;24.00;25.60;37.60;;;;;;110051;1254;45792;-61
2023/02/22 07:10:27;;;;;;;;;24.50;21.25;25.50;37.30;;;;;;110112;1254;55519;-62
2023/02/22 07:12:54;;;;;;;;;30.00;21.00;25.50;37.40;;;;;;110158;1250;53428;-62
2023/02/22 07:15:23;;;;;;;;;27.67;23.67;25.50;37.10;;;;;;110077;1254;49901;-61
2023/02/22 07:17:51;;;;;;;;;26.50;21.50;25.40;37.30;;;;;;110113;1250;49141;-61
2023/02/22 07:20:19;;;;;;;;;25.50;20.50;25.40;37.20;;;;;;110108;1250;46515;-61
2023/02/22 07:22:47;;;;;;;;;25.50;20.50;25.30;37.10;;;;;;110132;1254;55277;-61
2023/02/22 07:25:14;;;;;;;;;27.00;22.00;25.20;36.90;;;;;;110104;1254;54155;-61
2023/02/22 07:27:41;;;;;;;;;27.00;22.00;25.20;37.00;;;;;;110097;1250;49629;-61
2023/02/22 07:30:16;;;;;;;;;24.00;20.00;25.20;36.90;;;;;;110071;1254;49731;-61
2023/02/22 07:32:45;;;;;;;;;23.50;20.00;25.10;37.30;;;;;;110107;1250;45460;-62
2023/02/22 07:35:40;;;;;;;;;24.00;21.00;25.10;37.00;;;;;;110069;1251;55905;-61
2023/02/22 07:38:07;;;;;;;;;23.00;20.00;25.00;36.70;;;;;;109939;1254;53725;-63
2023/02/22 07:40:36;;;;;;;;;21.00;19.00;25.00;36.70;;;;;;110098;1254;49232;-62
2023/02/22 07:43:15;;;;;;;;;26.00;21.00;25.00;36.60;;;;;;110312;1251;49562;-62
2023/02/22 07:45:42;;;;;;;;;26.50;19.50;25.00;36.50;;;;;;110173;1254;46043;-62
2023/02/22 07:48:11;;;;;;;;;19.00;16.00;24.90;37.20;;;;;;110118;1254;55524;-61
2023/02/22 07:50:38;;;;;;;;;23.00;18.00;24.90;36.30;;;;;;110122;1250;53967;-62
2023/02/22 07:53:09;;;;;;;;;23.00;20.00;24.90;36.40;;;;;;110169;1254;49984;-62
2023/02/22 07:55:36;;;;;;;;;24.00;21.00;24.80;36.50;;;;;;110250;1250;50013;-62
2023/02/22 07:58:06;;;;;;;;;23.00;18.00;24.80;36.60;;;;;;110135;1251;45880;-61
2023/02/22 08:00:38;;;;;;;;;17.67;16.33;24.70;36.50;;;;;;110074;1256;55083;-62
2023/02/22 08:03:09;;;;;;;;;23.00;17.00;24.70;36.50;;;;;;110037;1251;53525;-62
2023/02/22 08:05:38;;;;;;;;;22.00;18.50;24.60;36.30;;;;;;110282;1254;50973;-61
2023/02/22 08:08:06;;;;;;;;;21.00;19.00;24.60;36.00;;;;;;110161;1250;50284;-62
2023/02/22 08:10:34;;;;;;;;;20.00;18.00;24.60;36.10;;;;;;110071;1250;45478;-62
2023/02/22 08:13:02;;;;;;;;;23.00;17.00;24.60;36.00;;;;;;110062;1251;56012;-61
2023/02/22 08:15:30;;;;;;;;;19.00;15.00;24.50;36.00;;;;;;110128;1254;55046;-61
2023/02/22 08:17:58;;;;;;;;;19.00;16.50;24.50;36.10;;;;;;110068;1254;49892;-61
2023/02/22 08:20:27;;;;;;;;;19.33;16.00;24.50;36.20;;;;;;110114;1255;49699;-60
2023/02/22 08:22:55;;;;;;;;;22.00;17.00;24.40;36.00;;;;;;110126;1250;46024;-61
2023/02/22 08:25:26;;;;;;;;;21.00;18.00;24.40;36.00;;;;;;110097;1250;55302;-61
2023/02/22 08:27:58;;;;;;;;;26.00;20.00;24.40;36.00;;;;;;110119;1254;55012;-61
2023/02/22 08:30:27;;;;;;;;;23.00;21.00;24.40;36.00;;;;;;110172;1254;49932;-62
2023/02/22 08:32:54;;;;;;;;;17.00;15.50;24.30;35.80;;;;;;110227;1251;49496;-61
2023/02/22 08:35:21;;;;;;;;;19.00;17.00;24.20;35.80;;;;;;110118;1254;45590;-60
2023/02/22 08:37:53;;;;;;;;;19.00;15.00;24.20;36.00;;;;;;110125;1250;55960;-62
2023/02/22 08:40:23;;;;;;;;;18.00;15.50;24.20;36.00;;;;;;110238;1250;53326;-60
2023/02/22 08:42:50;;;;;;;;;21.67;16.00;24.20;36.10;;;;;;110236;1250;49470;-61
2023/02/22 08:45:17;;;;;;;;;18.00;15.00;24.10;35.50;;;;;;110176;1251;49201;-61
2023/02/22 08:47:44;;;;;;;;;20.67;16.00;24.10;35.50;;;;;;110159;1250;45910;-62
2023/02/22 08:50:37;;;;;;;;;16.67;15.67;24.00;36.00;;;;;;110170;1250;55448;-62
2023/02/22 08:53:04;;;;;;;;;16.00;14.00;24.00;36.20;;;;;;110076;1254;55165;-62
2023/02/22 08:55:35;;;;;;;;;16.00;14.00;24.00;36.20;;;;;;110198;1254;50388;-60
2023/02/22 08:58:04;;;;;;;;;22.00;16.50;24.00;36.20;;;;;;110077;1250;49155;-61
2023/02/22 09:00:32;;;;;;;;;15.50;14.00;23.90;36.10;;;;;;110135;1254;45751;-61
2023/02/22 09:03:01;;;;;;;;;22.00;18.00;23.90;36.20;;;;;;109941;1256;57044;-61
2023/02/22 09:05:29;;;;;;;;;21.00;16.00;23.90;36.20;;;;;;110200;1254;54279;-61
2023/02/22 09:07:56;;;;;;;;;20.00;16.00;23.90;36.30;;;;;;110100;1250;49800;-61
2023/02/22 09:10:26;;;;;;;;;19.00;14.00;23.90;36.20;;;;;;110116;1250;49596;-62
2023/02/22 09:12:56;;;;;;;;;18.00;15.00;23.90;36.20;;;;;;110034;1254;45764;-61
2023/02/22 09:15:24;;;;;;;;;15.33;14.33;23.80;36.00;;;;;;110080;1250;56469;-62
2023/02/22 09:17:51;;;;;;;;;17.00;16.00;23.80;36.00;;;;;;110186;1254;53781;-61
2023/02/22 09:20:19;;;;;;;;;19.33;15.00;23.80;36.00;;;;;;110277;1250;49538;-61
2023/02/22 09:22:47;;;;;;;;;19.00;17.00;23.80;36.00;;;;;;110230;1254;49312;-61
2023/02/22 09:25:15;;;;;;;;;19.25;18.00;23.80;35.40;;;;;;110159;1250;45584;-61
2023/02/22 09:27:42;;;;;;;;;18.50;16.00;23.80;35.90;;;;;;110113;1251;55720;-61
2023/02/22 09:30:23;;;;;;;;;17.00;13.50;23.80;36.00;;;;;;110068;1254;53542;-62
2023/02/22 09:32:56;;;;;;;;;19.50;16.00;23.90;36.00;;;;;;110113;1254;49945;-61
2023/02/22 09:35:25;;;;;;;;;20.00;18.00;23.80;35.90;;;;;;110192;1254;49110;-61
2023/02/22 09:37:57;;;;;;;;;19.00;16.50;23.90;35.90;;;;;;109987;1256;46758;-63
2023/02/22 09:40:29;;;;;;;;;18.00;16.00;23.90;35.90;;;;;;110112;1250;56539;-61
2023/02/22 09:43:06;;;;;;;;;20.00;17.00;24.00;35.90;;;;;;110205;1250;54695;-63
2023/02/22 09:45:38;;;;;;;;;16.00;14.00;24.00;35.90;;;;;;110120;1251;49353;-63
2023/02/22 09:48:07;;;;;;;;;21.00;20.00;24.00;35.90;;;;;;110273;1254;50669;-62
2023/02/22 09:50:37;;;;;;;;;15.50;14.50;24.10;35.90;;;;;;110094;1250;46014;-62
2023/02/22 09:53:16;;;;;;;;;17.00;15.00;24.10;35.90;;;;;;110048;1256;55589;-61
2023/02/22 09:55:47;;;;;;;;;17.00;15.00;24.10;36.10;;;;;;110102;1254;54390;-61
2023/02/22 09:58:32;;;;;;;;;19.50;17.00;24.20;36.10;;;;;;110186;1254;50170;-61
2023/02/22 10:01:21;;;;;;;;;19.67;17.00;24.30;36.70;;;;;;110093;1254;49854;-61
2023/02/22 10:04:03;;;;;;;;;15.00;13.50;24.30;36.00;;;;;;110125;1250;45882;-61
2023/02/22 10:06:32;;;;;;;;;16.00;15.00;24.30;36.10;;;;;;110113;1250;55781;-61
2023/02/22 10:09:06;;;;;;;;;17.67;15.00;24.40;36.00;;;;;;109858;1256;54047;-62
2023/02/22 10:11:55;;;;;;;;;20.00;13.00;24.40;35.90;;;;;;110064;1250;49698;-61
2023/02/22 10:14:29;;;;;;;;;19.00;16.00;24.40;36.00;;;;;;110036;1254;49166;-61
2023/02/22 10:17:05;;;;;;;;;19.00;17.00;24.50;35.80;;;;;;110170;1254;46356;-63
2023/02/22 10:19:37;;;;;;;;;17.00;15.00;24.50;35.70;;;;;;110153;1252;56185;-62
2023/02/22 10:22:43;;;;;;;;;16.50;14.50;24.60;35.60;;;;;;110052;1250;54193;-63
2023/02/22 10:25:33;;;;;;;;;17.00;16.00;24.60;35.60;;;;;;110137;1250;49832;-61
2023/02/22 10:28:23;;;;;;;;;18.00;16.00;24.60;35.90;;;;;;110330;1254;50070;-61
2023/02/22 10:30:57;;;;;;;;;20.00;18.00;24.70;35.70;;;;;;110224;1254;46019;-62
2023/02/22 10:33:47;;;;;;;;;16.00;15.00;24.70;35.50;;;;;;110023;1254;56482;-62
2023/02/22 10:36:18;;;;;;;;;20.00;19.00;24.80;35.70;;;;;;110178;1250;54239;-62
2023/02/22 10:38:53;;;;;;;;;18.00;15.00;24.80;35.90;;;;;;110159;1250;49591;-61
2023/02/22 10:41:27;;;;;;;;;17.00;16.00;24.80;35.50;;;;;;110206;1254;50338;-62
2023/02/22 10:43:54;;;;;;;;;17.00;16.00;24.90;35.50;;;;;;110124;1253;45971;-61
2023/02/22 10:46:24;;;;;;;;;17.00;16.00;24.90;35.30;;;;;;110146;1254;55303;-62
2023/02/22 10:48:54;;;;;;;;;13.50;12.50;24.90;35.40;;;;;;110166;1255;53967;-60
2023/02/22 10:51:21;;;;;;;;;18.00;16.50;24.90;35.60;;;;;;110253;1250;49952;-62
2023/02/22 10:54:18;;;;;;;;;15.75;13.00;24.90;35.80;;;;;;110166;1250;49836;-61
2023/02/22 10:56:48;;;;;;;;;18.50;15.00;24.90;35.50;;;;;;110121;1254;45274;-62
2023/02/22 10:59:35;;;;;;;;;17.00;13.00;25.00;35.90;;;;;;110134;1250;56274;-62
2023/02/22 11:02:14;;;;;;;;;16.00;15.00;25.00;35.50;;;;;;110093;1251;54193;-61
2023/02/22 11:04:50;;;;;;;;;16.50;15.50;25.00;35.20;;;;;;110109;1254;49468;-62
2023/02/22 11:07:29;;;;;;;;;16.00;15.00;25.00;35.30;;;;;;110337;1250;50937;-65
2023/02/22 11:09:58;;;;;;;;;19.67;17.00;25.00;35.20;;;;;;110345;1254;46656;-61
2023/02/22 11:12:30;;;;;;;;;15.00;13.00;25.10;35.60;;;;;;110130;1250;55990;-63
2023/02/22 11:15:27;;;;;;;;;16.50;14.00;25.10;35.80;;;;;;110160;1254;54746;-61
2023/02/22 11:17:56;;;;;;;;;16.00;14.25;25.10;35.50;;;;;;110066;1250;49641;-60
2023/02/22 11:20:34;;;;;;;;;19.00;15.67;25.10;35.30;;;;;;110151;1252;50186;-61
2023/02/22 11:23:03;;;;;;;;;15.00;14.00;25.20;35.20;;;;;;109951;1254;45981;-61
2023/02/22 11:25:38;;;;;;;;;17.00;15.00;25.20;35.00;;;;;;110147;1250;55057;-62
2023/02/22 11:28:13;;;;;;;;;19.00;16.00;25.20;34.90;;;;;;110043;1250;54587;-61
2023/02/22 11:30:43;;;;;;;;;17.00;16.00;25.20;35.30;;;;;;110135;1254;49646;-62
2023/02/22 11:33:16;;;;;;;;;14.00;13.00;25.20;35.50;;;;;;110282;1254;50323;-62
2023/02/22 11:36:07;;;;;;;;;17.00;15.00;25.20;35.00;;;;;;110341;1254;45551;-60
2023/02/22 11:38:53;;;;;;;;;16.00;14.50;25.20;35.20;;;;;;110070;1250;55562;-61
2023/02/22 11:41:26;;;;;;;;;14.00;12.00;25.20;35.50;;;;;;110333;1250;55019;-61
2023/02/22 11:43:53;;;;;;;;;16.00;15.00;25.30;35.50;;;;;;110219;1254;49526;-61
2023/02/22 11:46:25;;;;;;;;;15.00;14.00;25.30;35.60;;;;;;110087;1254;49577;-61
2023/02/22 11:49:22;;;;;;;;;18.00;14.00;25.30;35.60;;;;;;110169;1254;46368;-61
2023/02/22 11:52:07;;;;;;;;;14.00;13.00;25.30;35.60;;;;;;110194;1252;56277;-62
2023/02/22 11:54:46;;;;;;;;;20.50;18.00;25.40;35.60;;;;;;110098;1254;53993;-63
2023/02/22 11:57:35;;;;;;;;;15.00;14.00;25.40;35.60;;;;;;109984;1254;50676;-62
2023/02/22 12:00:15;;;;;;;;;17.00;14.50;25.40;35.80;;;;;;110106;1254;50875;-61
2023/02/22 12:02:57;;;;;;;;;16.50;15.75;25.40;35.70;;;;;;110247;1250;45400;-61
2023/02/22 12:05:36;;;;;;;;;15.00;13.00;25.40;35.60;;;;;;110203;1250;55959;-61
2023/02/22 12:08:28;;;;;;;;;18.00;15.00;25.40;35.30;;;;;;110067;1250;54120;-61
2023/02/22 12:11:09;;;;;;;;;17.50;14.50;25.40;35.20;;;;;;110222;1254;49770;-61
2023/02/22 12:14:02;;;;;;;;;16.00;14.00;25.40;35.60;;;;;;110079;1254;50120;-62
2023/02/22 12:16:38;;;;;;;;;14.25;13.00;25.50;35.10;;;;;;110094;1254;45995;-61
2023/02/22 12:19:40;;;;;;;;;15.00;14.00;25.40;35.10;;;;;;110081;1254;55529;-62
2023/02/22 12:22:12;;;;;;;;;16.00;13.00;25.50;34.70;;;;;;110037;1250;53892;-61
2023/02/22 12:24:44;;;;;;;;;14.75;13.75;25.50;34.80;;;;;;109975;1250;49685;-60
2023/02/22 12:27:23;;;;;;;;;17.00;15.00;25.50;34.90;;;;;;110096;1250;50198;-61
2023/02/22 12:30:06;;;;;;;;;16.00;15.00;25.50;34.60;;;;;;110143;1250;46424;-61
2023/02/22 12:32:40;;;;;;;;;17.00;15.00;25.50;34.60;;;;;;109963;1254;56784;-61
2023/02/22 12:35:18;;;;;;;;;15.00;14.00;25.50;34.60;;;;;;110082;1251;54684;-61
2023/02/22 12:37:49;;;;;;;;;17.00;16.00;25.50;34.50;;;;;;110267;1254;49342;-61
2023/02/22 12:40:52;;;;;;;;;22.00;17.00;25.50;34.30;;;;;;110096;1254;49472;-62
2023/02/22 12:43:33;;;;;;;;;14.50;13.00;25.50;34.60;;;;;;109836;1250;46576;-62
2023/02/22 12:46:24;;;;;;;;;15.33;13.00;25.50;34.80;;;;;;110075;1255;55594;-61